Time;durP1;ratioP1;P1;durP2;ratioP2;P2;SDS_P1;SDS_P2;PMS_P1;PMS_P2;Temp;Humidity;BMP_temperature;BMP_pressure;BME280_temperature;BME280_humidity;BME280_pressure;Samples;Min_cycle;Max_cycle;Signal;HPM_P1;HPM_P2
2022/09/30 00:00:33;;;;;;;6.57;3.70;;;12.70;92.50;;;13.02;60.06;97780.41;4971857;28;124024;-70
2022/09/30 00:03:00;;;;;;;4.20;3.20;;;12.60;92.40;;;13.00;59.95;97783.56;4990927;28;124188;-70
2022/09/30 00:05:27;;;;;;;7.37;3.77;;;12.50;92.50;;;12.97;59.95;97772.34;4989944;28;119254;-70
2022/09/30 00:07:53;;;;;;;4.80;3.60;;;12.50;92.50;;;12.96;59.74;97770.75;4984518;28;118026;-70
2022/09/30 00:10:20;;;;;;;7.67;3.17;;;12.50;92.50;;;12.97;60.03;97778.69;4978140;28;123954;-70
2022/09/30 00:12:46;;;;;;;4.07;3.20;;;12.50;92.50;;;12.98;60.11;97773.97;4969249;28;123814;-70
2022/09/30 00:15:13;;;;;;;5.80;3.03;;;12.50;92.50;;;12.99;59.83;97775.59;4982920;28;119643;-70
2022/09/30 00:17:40;;;;;;;4.90;3.13;;;12.50;92.50;;;13.01;59.78;97773.28;4978375;28;119503;-70
2022/09/30 00:20:07;;;;;;;4.37;2.90;;;12.50;92.50;;;13.01;59.61;97790.72;4985889;28;124136;-70
2022/09/30 00:22:33;;;;;;;6.77;3.03;;;12.50;92.50;;;13.03;59.71;97782.84;4985631;28;123905;-70
2022/09/30 00:25:00;;;;;;;4.10;3.40;;;12.50;92.40;;;13.05;59.43;97779.72;4982449;28;119853;-70
2022/09/30 00:27:26;;;;;;;5.30;3.20;;;12.50;92.40;;;13.05;59.91;97776.94;4993609;28;118660;-70
2022/09/30 00:29:53;;;;;;;5.40;3.30;;;13.10;92.70;;;13.05;59.75;97774.97;4984265;28;123974;-69
2022/09/30 00:32:23;;;;;;;3.00;2.50;;;12.60;92.50;;;13.08;59.66;97783.75;4980299;28;123125;-70
2022/09/30 00:34:49;;;;;;;8.10;3.40;;;12.60;92.50;;;13.08;59.64;97790.09;4984949;28;120696;-70
2022/09/30 00:37:16;;;;;;;6.27;3.80;;;12.60;92.50;;;13.09;59.89;97785.38;4985743;28;120473;-69
2022/09/30 00:39:42;;;;;;;3.90;2.97;;;12.60;92.80;;;13.11;59.88;97794.13;4983216;28;124111;-69
2022/09/30 00:42:14;;;;;;;3.03;2.73;;;12.60;92.60;;;13.11;59.98;97792.19;4984055;28;124297;-69
2022/09/30 00:45:04;;;;;;;4.10;2.67;;;12.70;92.60;;;13.11;59.86;97786.63;4970085;28;119355;-70
2022/09/30 00:47:53;;;;;;;4.70;3.20;;;12.60;92.60;;;13.10;59.67;97793.31;4985651;28;118760;-69
2022/09/30 00:50:34;;;;;;;3.33;2.83;;;12.60;92.60;;;13.10;59.76;97790.53;4996686;28;124152;-70
2022/09/30 00:53:09;;;;;;;4.40;2.90;;;12.60;92.60;;;13.10;59.83;97798.88;4980079;28;123857;-69
2022/09/30 00:56:01;;;;;;;4.93;3.17;;;12.60;92.60;;;13.11;59.95;97800.50;4982863;28;119710;-69
2022/09/30 00:58:53;;;;;;;4.80;2.97;;;12.60;92.60;;;13.10;59.85;97798.88;4971273;28;118805;-69
2022/09/30 01:01:21;;;;;;;6.23;3.40;;;12.60;92.50;;;13.08;59.97;97794.84;4982732;28;124593;-70
2022/09/30 01:04:05;;;;;;;6.23;2.87;;;12.60;92.50;;;13.09;59.78;97802.00;4976507;28;124461;-69
2022/09/30 01:06:31;;;;;;;4.07;2.47;;;12.60;92.50;;;13.06;59.76;97803.53;4977402;28;119496;-69
2022/09/30 01:08:59;;;;;;;5.70;3.30;;;12.60;92.50;;;13.07;59.73;97793.22;4975386;28;118910;-69
2022/09/30 01:11:27;;;;;;;5.47;3.63;;;12.60;92.50;;;13.09;59.74;97791.72;4980321;28;124006;-68
2022/09/30 01:14:00;;;;;;;7.13;3.87;;;12.60;92.50;;;13.11;59.70;97800.50;4984489;28;124079;-69
2022/09/30 01:16:57;;;;;;;4.30;2.90;;;12.60;92.50;;;13.10;59.72;97804.41;4976691;28;119217;-69
2022/09/30 01:19:50;;;;;;;4.07;2.87;;;12.60;92.50;;;13.11;59.70;97799.66;4975088;28;118867;-68
2022/09/30 01:22:29;;;;;;;4.03;2.70;;;12.60;92.50;;;13.09;59.83;97802.81;4986505;28;122939;-69
2022/09/30 01:25:31;;;;;;;4.87;2.53;;;12.60;92.50;;;13.09;59.54;97796.47;4981466;28;123938;-69
2022/09/30 01:28:27;;;;;;;3.53;3.20;;;12.60;92.50;;;13.08;59.75;97794.84;4977019;28;120330;-69
2022/09/30 01:31:17;;;;;;;4.47;3.00;;;12.60;92.50;;;13.09;59.93;97802.00;4983363;28;120054;-69
2022/09/30 01:34:17;;;;;;;4.50;2.90;;;12.60;92.50;;;13.11;59.95;97799.66;4981743;28;123151;-69
2022/09/30 01:37:14;;;;;;;7.27;3.80;;;12.60;92.60;;;13.10;59.80;97803.59;4974142;28;123601;-69
2022/09/30 01:40:50;;;;;;;4.57;3.37;;;12.60;92.50;;;13.07;59.84;97798.78;4970266;28;119259;-69
2022/09/30 01:43:38;;;;;;;4.80;2.90;;;12.60;92.60;;;13.08;59.76;97795.63;4976694;28;119536;-69
2022/09/30 01:46:19;;;;;;;6.03;3.43;;;12.60;92.60;;;13.09;59.87;97794.50;4966338;28;123628;-69
2022/09/30 01:49:06;;;;;;;3.60;2.97;;;12.60;92.60;;;13.08;59.91;97794.84;4979985;28;122932;-69
2022/09/30 01:51:53;;;;;;;4.50;2.80;;;12.60;92.60;;;13.07;59.93;97796.81;4977482;28;119249;-69
2022/09/30 01:54:23;;;;;;;5.30;3.50;;;12.60;92.70;;;13.05;60.06;97796.34;4980374;28;119060;-69
2022/09/30 01:57:02;;;;;;;4.43;3.20;;;12.60;92.70;;;13.04;60.21;97798.31;4975465;28;123498;-69
2022/09/30 01:59:38;;;;;;;5.73;3.40;;;12.60;92.80;;;13.04;60.30;97805.84;4979957;28;124284;-69
2022/09/30 02:02:26;;;;;;;5.17;3.10;;;12.60;92.80;;;13.03;60.50;97810.59;4976945;28;119717;-69
2022/09/30 02:05:03;;;;;;;5.33;3.50;;;12.60;92.90;;;12.99;60.28;97819.94;4984303;28;119278;-69
2022/09/30 02:07:36;;;;;;;5.40;3.00;;;12.60;92.90;;;12.96;60.72;97827.00;4973332;28;124708;-69
2022/09/30 02:10:08;;;;;;;6.63;3.30;;;12.50;93.00;;;12.96;60.54;97834.53;4967322;28;123357;-69
2022/09/30 02:12:46;;;;;;;6.33;3.50;;;12.50;93.00;;;12.96;60.77;97831.75;4976078;28;119171;-69
2022/09/30 02:15:22;;;;;;;5.17;3.40;;;12.40;93.10;;;12.94;61.01;97832.09;4973967;28;119012;-69
2022/09/30 02:17:58;;;;;;;5.10;2.97;;;12.50;93.20;;;12.94;61.18;97831.28;4975642;28;124164;-69
2022/09/30 02:20:29;;;;;;;7.73;3.60;;;12.50;93.20;;;12.92;61.03;97836.38;4982951;28;123776;-69
2022/09/30 02:23:18;;;;;;;4.83;3.40;;;12.50;93.30;;;12.92;61.15;97833.59;4975952;28;120444;-69
2022/09/30 02:25:50;;;;;;;7.73;4.10;;;12.40;93.30;;;12.92;61.33;97841.91;4983063;28;120701;-69
2022/09/30 02:28:25;;;;;;;5.37;3.67;;;12.40;93.30;;;12.91;61.26;97841.09;4974632;28;123949;-69
2022/09/30 02:30:57;;;;;;;7.17;4.27;;;12.40;93.30;;;12.90;61.15;97833.16;4981290;28;123828;-69
2022/09/30 02:33:51;;;;;;;11.53;4.70;;;12.40;93.40;;;12.88;61.09;97836.28;4969543;28;119017;-69
2022/09/30 02:36:23;;;;;;;4.47;3.30;;;12.40;93.40;;;12.89;61.36;97842.63;4982822;28;118804;-69
2022/09/30 02:39:04;;;;;;;7.63;4.00;;;12.40;93.40;;;12.89;61.43;97839.84;4986118;28;124091;-69
2022/09/30 02:41:40;;;;;;;6.27;3.87;;;12.40;93.50;;;12.90;61.30;97847.03;4985836;28;122890;-70
2022/09/30 02:44:06;;;;;;;5.83;4.33;;;12.40;93.50;;;12.89;61.36;97848.16;4977013;28;119429;-69
2022/09/30 02:47:07;;;;;;;5.87;3.90;;;12.40;93.40;;;12.89;61.20;97850.94;4985492;28;118988;-69
2022/09/30 02:50:11;;;;;;;8.57;4.03;;;12.40;93.50;;;12.84;61.41;97851.97;4985010;28;124780;-69
2022/09/30 02:53:11;;;;;;;9.43;4.83;;;12.40;93.50;;;12.79;61.34;97855.81;4986794;28;122812;-69
2022/09/30 02:56:22;;;;;;;13.43;5.00;;;12.30;93.50;;;12.73;61.50;97857.19;4970168;28;117100;-69
2022/09/30 02:58:51;;;;;;;8.00;4.60;;;12.30;93.50;;;12.72;61.72;97860.34;4984450;28;119554;-69
2022/09/30 03:01:18;;;;;;;13.93;4.77;;;12.40;93.60;;;12.70;61.64;97863.44;4982605;28;124071;-69
2022/09/30 03:03:55;;;;;;;12.83;5.60;;;12.50;93.70;;;12.72;61.73;97866.69;4986487;28;124034;-69
2022/09/30 03:06:22;;;;;;;6.50;4.30;;;12.40;93.70;;;12.72;61.71;97866.69;4983444;28;119111;-69
2022/09/30 03:08:52;;;;;;;7.47;4.80;;;12.30;93.60;;;12.72;61.80;97874.19;4987028;28;119075;-69
2022/09/30 03:11:23;;;;;;;9.17;5.17;;;12.30;93.70;;;12.68;61.86;97879.66;4987899;28;124047;-69
2022/09/30 03:14:24;;;;;;;10.43;5.80;;;12.20;93.70;;;12.64;61.94;97869.59;4987510;28;123926;-69
2022/09/30 03:17:25;;;;;;;7.60;4.73;;;12.20;93.70;;;12.59;61.79;97878.94;4977278;28;119236;-69
2022/09/30 03:20:30;;;;;;;10.00;5.43;;;12.20;93.80;;;12.55;62.32;97875.28;4954578;28;118902;-69
2022/09/30 03:23:21;;;;;;;13.90;5.87;;;12.10;93.90;;;12.51;62.13;97882.66;4983383;28;123367;-69
2022/09/30 03:26:09;;;;;;;8.57;5.20;;;12.10;93.90;;;12.46;62.26;97886.47;4981046;28;123933;-69
2022/09/30 03:28:53;;;;;;;7.80;5.33;;;12.00;93.90;;;12.47;62.54;97892.84;4985272;28;119321;-69
2022/09/30 03:31:43;;;;;;;9.27;5.33;;;12.00;94.10;;;12.44;62.40;97887.97;4974239;28;119526;-69
2022/09/30 03:34:32;;;;;;;10.27;5.93;;;12.00;94.10;;;12.42;62.46;97895.81;4981001;28;123905;-69
2022/09/30 03:37:32;;;;;;;8.70;5.40;;;11.90;94.10;;;12.43;62.59;97892.69;4988050;28;122874;-69
2022/09/30 03:40:20;;;;;;;9.67;4.87;;;12.10;94.20;;;12.42;62.74;97895.81;4975177;28;119316;-69
2022/09/30 03:43:04;;;;;;;10.43;5.40;;;12.00;94.20;;;12.43;62.84;97902.97;4984528;28;117882;-69
2022/09/30 03:46:06;;;;;;;9.40;5.57;;;12.00;94.20;;;12.40;62.83;97904.47;4973411;28;124089;-69
2022/09/30 03:48:35;;;;;;;13.40;5.30;;;12.00;94.20;;;12.40;63.22;97898.13;4955797;28;123393;-74
2022/09/30 03:51:03;;;;;;;7.77;5.20;;;11.90;94.20;;;12.40;62.96;97901.69;4985447;28;119302;-69
2022/09/30 03:53:29;;;;;;;10.63;5.40;;;11.90;94.20;;;12.38;62.79;97896.53;4983190;28;119009;-69
2022/09/30 03:55:56;;;;;;;6.37;4.73;;;11.90;94.30;;;12.36;62.90;97898.81;4980013;28;124199;-69
2022/09/30 03:58:22;;;;;;;10.33;5.43;;;11.90;94.30;;;12.35;63.19;97896.38;4984807;28;124085;-69
2022/09/30 04:00:53;;;;;;;9.97;5.07;;;11.90;94.40;;;12.33;63.24;97902.28;4987634;28;119076;-69
2022/09/30 04:03:22;;;;;;;8.07;4.30;;;11.90;94.40;;;12.34;63.06;97906.66;4985549;28;119176;-69
2022/09/30 04:05:48;;;;;;;5.03;3.70;;;11.90;94.50;;;12.38;63.30;97910.38;4981951;28;124608;-69
2022/09/30 04:08:15;;;;;;;8.50;5.47;;;11.90;94.50;;;12.42;62.99;97910.47;4982778;28;124778;-68
2022/09/30 04:10:42;;;;;;;9.50;4.83;;;11.90;94.40;;;12.44;63.07;97918.44;4976922;28;120818;-69
2022/09/30 04:13:11;;;;;;;9.60;5.40;;;12.10;94.50;;;12.43;62.92;97928.72;4958533;28;119392;-69
2022/09/30 04:15:39;;;;;;;8.10;4.50;;;12.10;94.50;;;12.44;63.07;97924.81;4980065;28;123853;-69
2022/09/30 04:18:05;;;;;;;7.47;4.40;;;12.10;94.50;;;12.46;62.99;97929.97;4980944;28;123910;-69
2022/09/30 04:20:32;;;;;;;8.20;4.27;;;12.00;94.40;;;12.46;62.89;97935.53;4984430;28;119640;-69
2022/09/30 04:23:00;;;;;;;7.53;4.73;;;12.00;94.40;;;12.48;62.81;97938.75;4969909;28;120862;-69
2022/09/30 04:25:27;;;;;;;7.70;4.30;;;12.00;94.40;;;12.51;62.86;97938.06;4983604;28;124163;-69
2022/09/30 04:27:55;;;;;;;5.90;4.33;;;12.00;94.40;;;12.51;62.75;97943.59;4983277;28;123722;-69
2022/09/30 04:30:21;;;;;;;7.03;4.20;;;12.00;94.40;;;12.51;62.65;97938.88;4980258;28;118909;-69
2022/09/30 04:32:48;;;;;;;10.70;4.77;;;12.00;94.40;;;12.51;62.93;97932.53;4983869;28;118922;-69
2022/09/30 04:35:15;;;;;;;7.47;4.07;;;12.00;94.40;;;12.52;62.62;97934.13;4956318;28;123081;-69
2022/09/30 04:37:45;;;;;;;5.77;4.47;;;12.00;94.30;;;12.51;62.89;97933.31;4974323;28;124086;-69
2022/09/30 04:40:14;;;;;;;8.80;4.17;;;12.00;94.30;;;12.51;62.82;97932.53;4984501;28;119784;-69
2022/09/30 04:42:42;;;;;;;9.63;3.90;;;12.10;94.40;;;12.50;62.39;97936.47;4977060;28;119020;-69
2022/09/30 04:45:13;;;;;;;11.30;4.50;;;12.00;94.30;;;12.50;62.84;97936.47;4986516;28;124505;-69
2022/09/30 04:47:44;;;;;;;7.13;3.93;;;12.00;94.30;;;12.50;62.56;97940.03;4973704;28;123713;-69
2022/09/30 04:50:10;;;;;;;6.17;4.50;;;12.10;94.40;;;12.50;62.52;97939.22;4983092;28;119291;-69
2022/09/30 04:52:37;;;;;;;5.70;4.60;;;12.00;94.30;;;12.48;62.53;97944.31;4968478;28;118946;-69
2022/09/30 04:55:04;;;;;;;8.00;4.23;;;12.00;94.30;;;12.48;62.71;97947.06;4977501;28;123289;-69
2022/09/30 04:57:32;;;;;;;8.50;5.13;;;12.00;94.30;;;12.49;62.46;97951.44;4969829;28;123151;-69
2022/09/30 04:59:58;;;;;;;8.67;4.97;;;12.00;94.30;;;12.46;62.72;97957.69;4976585;28;120213;-68
2022/09/30 05:02:25;;;;;;;5.30;4.40;;;12.00;94.30;;;12.44;62.75;97954.44;4980704;28;118349;-69
2022/09/30 05:04:52;;;;;;;11.10;6.80;;;11.90;94.30;;;12.37;62.44;97958.59;4969376;28;124540;-69
2022/09/30 05:07:19;;;;;;;11.33;5.30;;;11.90;94.30;;;12.33;62.63;97963.22;4968985;28;124203;-69
2022/09/30 05:09:45;;;;;;;9.80;5.40;;;11.90;94.40;;;12.31;63.22;97965.53;4977191;28;119789;-69
2022/09/30 05:12:13;;;;;;;8.40;5.00;;;13.10;95.00;;;12.28;63.66;97962.66;4968448;28;119043;-69
2022/09/30 05:14:39;;;;;;;12.57;5.33;;;11.80;94.60;;;12.24;63.41;97962.50;4968717;28;124136;-69
2022/09/30 05:17:06;;;;;;;7.57;4.70;;;11.80;94.60;;;12.23;63.35;97982.25;4977712;28;123578;-68
2022/09/30 05:19:32;;;;;;;6.63;5.00;;;11.80;94.60;;;12.23;63.18;97980.28;4974618;28;119376;-69
2022/09/30 05:21:59;;;;;;;9.57;4.90;;;12.20;94.80;;;12.23;63.25;97982.25;4979038;28;119105;-69
2022/09/30 05:24:26;;;;;;;8.70;4.57;;;12.10;94.80;;;12.23;63.10;97985.03;4966062;28;124093;-68
2022/09/30 05:26:52;;;;;;;7.60;3.93;;;11.80;94.60;;;12.21;63.38;97985.34;4964260;28;123834;-68
2022/09/30 05:29:18;;;;;;;8.47;5.10;;;11.80;94.50;;;12.22;63.13;97986.16;4968394;28;119405;-69
2022/09/30 05:31:45;;;;;;;5.97;4.30;;;11.80;94.50;;;12.21;62.89;97984.56;4965927;28;119066;-69
2022/09/30 05:34:12;;;;;;;9.20;4.87;;;11.80;94.50;;;12.21;63.19;97987.31;4965727;28;123848;-69
2022/09/30 05:36:38;;;;;;;7.50;4.57;;;11.80;94.50;;;12.20;63.22;97992.06;4970767;28;124891;-69
2022/09/30 05:39:05;;;;;;;10.17;5.43;;;12.20;94.60;;;12.20;63.06;97992.06;4969456;28;118615;-69
2022/09/30 05:41:31;;;;;;;13.03;6.27;;;12.00;94.60;;;12.17;62.74;97995.53;4973334;28;119676;-69
2022/09/30 05:44:00;;;;;;;13.13;5.43;;;11.70;94.40;;;12.12;63.09;98002.06;4969910;28;124311;-70
2022/09/30 05:46:27;;;;;;;11.20;5.67;;;11.70;94.40;;;12.10;63.28;97998.03;4966414;28;124100;-70
2022/09/30 05:48:54;;;;;;;10.90;4.60;;;11.60;94.50;;;12.09;63.01;98002.75;4980182;28;120835;-70
2022/09/30 05:51:21;;;;;;;12.60;5.53;;;11.80;94.60;;;12.10;63.03;98007.16;4975846;28;120452;-70
2022/09/30 05:53:47;;;;;;;9.93;6.57;;;12.60;94.90;;;12.07;63.04;98010.59;4965361;28;124183;-70
2022/09/30 05:56:14;;;;;;;9.00;5.40;;;11.60;94.60;;;12.10;63.42;98003.56;4972791;28;123654;-70
2022/09/30 05:58:41;;;;;;;7.13;5.00;;;11.60;94.70;;;12.44;62.65;98007.91;4977019;28;119304;-70
2022/09/30 06:01:14;;;;;;;11.20;5.83;;;11.70;95.00;;;12.65;62.14;98005.03;4978697;28;119245;-72
2022/09/30 06:03:45;;;;;;;11.07;5.90;;;11.90;94.90;;;12.65;61.98;98010.56;4975786;28;123910;-70
2022/09/30 06:06:13;;;;;;;12.63;6.10;;;11.90;94.60;;;12.55;62.19;98011.84;4979212;28;123689;-70
2022/09/30 06:08:42;;;;;;;13.93;5.70;;;11.90;94.40;;;12.47;62.19;98020.28;4980940;28;118534;-70
2022/09/30 06:11:11;;;;;;;9.10;5.40;;;11.90;94.40;;;12.42;62.32;98017.72;4995727;28;118622;-70
2022/09/30 06:13:39;;;;;;;9.00;5.10;;;11.90;94.40;;;12.38;62.79;98018.41;4965607;28;124031;-70
2022/09/30 06:16:06;;;;;;;11.00;6.27;;;12.00;94.20;;;12.35;62.77;98018.28;4965069;28;123826;-70
2022/09/30 06:18:34;;;;;;;8.53;6.00;;;11.90;94.20;;;12.33;62.69;98026.94;4979596;28;119181;-70
2022/09/30 06:21:03;;;;;;;12.63;6.30;;;11.90;94.20;;;12.36;62.61;98023.47;4979445;28;119044;-70
2022/09/30 06:23:33;;;;;;;8.43;6.00;;;12.00;94.20;;;12.42;62.63;98028.81;4984043;28;124065;-70
2022/09/30 06:26:03;;;;;;;10.37;6.80;;;12.00;94.20;;;12.45;62.64;98034.47;4981417;28;124375;-70
2022/09/30 06:28:29;;;;;;;13.67;6.93;;;12.00;94.20;;;12.49;62.75;98040.09;4978624;28;119415;-70
2022/09/30 06:30:56;;;;;;;10.13;6.60;;;12.10;94.30;;;12.53;62.45;98046.59;4979116;28;117838;-69
2022/09/30 06:33:22;;;;;;;13.07;7.93;;;12.10;94.30;;;12.57;62.55;98047.50;4976146;28;124632;-69
2022/09/30 06:35:49;;;;;;;9.23;6.30;;;12.10;94.30;;;12.58;62.47;98046.38;4977119;28;123981;-70
2022/09/30 06:38:16;;;;;;;15.33;9.17;;;12.10;94.30;;;12.59;62.47;98065.41;4974652;28;120049;-71
2022/09/30 06:40:48;;;;;;;12.60;8.77;;;12.10;94.30;;;12.60;62.19;98061.50;4994333;28;119552;-70
2022/09/30 06:43:16;;;;;;;14.00;7.47;;;12.10;94.20;;;12.63;62.09;98068.31;4982970;28;123839;-70
2022/09/30 06:45:45;;;;;;;12.53;8.40;;;12.10;94.30;;;12.65;62.08;98057.69;4970061;28;123957;-70
2022/09/30 06:48:12;;;;;;;15.50;8.17;;;12.10;94.30;;;12.68;62.34;98057.03;4965800;28;118601;-70
2022/09/30 06:50:39;;;;;;;12.63;7.23;;;12.10;94.30;;;12.72;62.32;98066.25;4969087;28;119127;-70
2022/09/30 06:53:07;;;;;;;11.33;8.20;;;12.20;94.30;;;12.78;62.00;98069.59;4970912;28;124298;-69
2022/09/30 06:55:37;;;;;;;16.67;8.90;;;12.30;94.40;;;12.83;62.06;98069.38;4959799;28;122734;-70
2022/09/30 06:58:13;;;;;;;18.63;9.07;;;12.30;94.30;;;12.81;62.11;98075.28;4985865;28;118207;-70
2022/09/30 07:00:40;;;;;;;10.83;7.17;;;10.10;93.30;;;12.77;61.98;98073.53;4980610;28;119230;-70
2022/09/30 07:03:11;;;;;;;16.20;7.57;;;12.20;94.30;;;12.74;62.24;98085.31;4988165;28;124060;-70
2022/09/30 07:05:37;;;;;;;13.73;8.90;;;12.20;94.30;;;12.74;62.14;98086.13;4978475;28;124033;-70
2022/09/30 07:08:07;;;;;;;17.33;9.30;;;12.70;94.60;;;12.75;62.38;98093.28;4975170;28;119417;-69
2022/09/30 07:10:34;;;;;;;19.67;10.30;;;12.20;94.40;;;12.76;62.44;98089.38;4967981;28;119157;-71
2022/09/30 07:13:01;;;;;;;13.67;8.33;;;12.30;94.40;;;12.76;62.17;98094.91;4975634;28;124061;-70
2022/09/30 07:15:28;;;;;;;13.93;9.13;;;12.20;94.30;;;12.76;62.28;98091.31;4978997;28;123835;-68
2022/09/30 07:17:55;;;;;;;11.67;8.30;;;12.20;94.40;;;12.76;62.42;98089.38;4968770;28;119102;-70
2022/09/30 07:20:22;;;;;;;16.50;10.30;;;12.30;94.40;;;12.75;62.45;98100.78;4981451;28;119048;-69
2022/09/30 07:22:49;;;;;;;16.20;9.33;;;12.20;94.40;;;12.68;62.26;98093.03;4972241;28;124242;-69
2022/09/30 07:25:16;;;;;;;13.80;9.97;;;12.10;94.50;;;12.67;62.54;98098.91;4986307;28;123533;-69
2022/09/30 07:27:43;;;;;;;18.30;9.90;;;12.10;94.50;;;12.66;62.43;98106.44;4978405;28;120375;-69
2022/09/30 07:30:10;;;;;;;18.00;10.13;;;12.10;94.60;;;12.66;62.75;98111.97;4978135;28;119911;-70
2022/09/30 07:32:37;;;;;;;14.70;8.70;;;12.10;94.60;;;12.67;62.50;98113.59;4980267;28;123989;-73
2022/09/30 07:35:05;;;;;;;15.60;10.30;;;12.10;94.60;;;12.68;62.52;98104.13;4989333;28;124162;-71
2022/09/30 07:37:34;;;;;;;14.97;8.83;;;12.10;94.60;;;12.71;62.73;98110.97;4975979;28;119696;-72
2022/09/30 07:40:05;;;;;;;14.93;9.80;;;12.10;94.60;;;12.72;62.78;98116.13;4986640;28;118077;-71
2022/09/30 07:42:36;;;;;;;24.90;11.83;;;12.20;94.60;;;12.76;62.68;98116.25;4999569;28;123884;-69
2022/09/30 07:45:03;;;;;;;13.57;9.20;;;12.20;94.60;;;12.77;62.65;98117.88;4979514;28;122761;-71
2022/09/30 07:47:29;;;;;;;14.43;8.83;;;12.20;94.60;;;12.82;62.65;98115.69;4984275;28;119008;-71
2022/09/30 07:49:56;;;;;;;16.47;10.70;;;12.30;94.70;;;12.88;62.59;98121.81;4982652;28;119130;-70
2022/09/30 07:52:22;;;;;;;14.70;10.13;;;12.30;94.60;;;12.91;62.49;98134.19;4973884;28;124287;-70
2022/09/30 07:54:49;;;;;;;16.60;11.17;;;12.30;94.60;;;12.94;62.17;98133.50;4985845;28;123875;-70
2022/09/30 07:57:16;;;;;;;18.10;11.70;;;12.30;94.60;;;12.93;62.24;98137.44;4970320;28;118718;-70
2022/09/30 07:59:42;;;;;;;20.47;12.30;;;12.30;94.50;;;12.92;62.43;98136.63;4966852;28;119525;-70
2022/09/30 08:02:16;;;;;;;14.23;9.63;;;12.40;94.60;;;12.90;62.40;98136.16;4968204;28;123245;-70
2022/09/30 08:04:43;;;;;;;17.70;12.53;;;12.30;94.60;;;12.88;62.71;98144.00;4973597;28;123849;-70
2022/09/30 08:07:11;;;;;;;22.60;12.40;;;12.30;94.70;;;12.85;62.81;98146.66;4979371;28;119033;-69
2022/09/30 08:09:38;;;;;;;20.70;10.80;;;12.20;94.70;;;12.85;62.72;98146.66;4977120;28;118939;-71
2022/09/30 08:12:04;;;;;;;17.20;11.03;;;12.30;94.80;;;12.90;62.72;98146.44;4973460;28;124338;-70
2022/09/30 08:14:31;;;;;;;20.07;10.50;;;12.30;94.90;;;12.95;62.99;98147.03;4977120;28;123844;-70
2022/09/30 08:16:59;;;;;;;19.63;11.97;;;12.40;94.90;;;13.04;62.82;98150.50;4966437;28;120330;-68
2022/09/30 08:19:27;;;;;;;14.30;10.30;;;12.60;95.00;;;13.11;62.64;98161.03;4966609;28;120098;-69
2022/09/30 08:21:54;;;;;;;14.50;9.17;;;12.50;94.80;;;13.20;62.53;98153.41;4975274;28;123916;-71
2022/09/30 08:24:22;;;;;;;17.37;10.93;;;12.60;94.90;;;13.26;62.40;98156.78;4985470;28;123831;-70
2022/09/30 08:26:48;;;;;;;17.53;12.10;;;12.60;94.80;;;13.28;62.04;98156.47;4982162;28;118463;-70
2022/09/30 08:29:15;;;;;;;23.80;10.20;;;12.60;94.70;;;13.29;62.13;98158.88;4983108;28;118517;-70
2022/09/30 08:31:41;;;;;;;12.47;8.43;;;12.70;94.70;;;13.35;62.17;98162.22;4976684;28;124109;-69
2022/09/30 08:34:08;;;;;;;18.17;9.83;;;12.70;94.70;;;13.41;61.92;98158.09;4967836;28;123876;-71
2022/09/30 08:36:35;;;;;;;15.77;10.17;;;12.80;94.70;;;13.48;62.01;98152.75;4974901;28;118596;-71
2022/09/30 08:39:02;;;;;;;14.63;10.00;;;13.30;94.90;;;13.57;61.77;98160.97;4970870;28;119145;-69
2022/09/30 08:41:59;;;;;;;15.50;8.33;;;12.90;94.60;;;13.65;61.74;98160.84;4966881;28;124170;-70
2022/09/30 08:44:43;;;;;;;21.63;10.80;;;13.00;94.50;;;13.65;61.57;98157.25;4972728;28;123736;-70
2022/09/30 08:47:47;;;;;;;18.40;12.67;;;13.00;94.40;;;13.58;61.37;98152.28;4973514;28;119500;-70
2022/09/30 08:50:57;;;;;;;16.20;10.53;;;13.00;94.40;;;13.54;61.44;98158.88;4967333;28;119479;-70
2022/09/30 08:53:30;;;;;;;14.10;10.87;;;12.90;94.40;;;13.57;61.76;98166.53;4969969;28;124145;-70
2022/09/30 08:56:01;;;;;;;18.20;9.90;;;13.00;94.50;;;13.61;61.56;98162.69;4976052;28;123455;-70
2022/09/30 08:58:35;;;;;;;14.67;10.70;;;13.40;94.60;;;13.63;61.34;98165.94;4961671;28;118415;-71
2022/09/30 09:01:18;;;;;;;21.63;10.90;;;13.00;94.40;;;13.64;61.44;98164.75;4952546;28;117888;-85
2022/09/30 09:03:45;;;;;;;18.93;12.47;;;13.00;94.40;;;13.67;61.44;98166.84;4965904;28;124070;-70
2022/09/30 09:07:05;;;;;;;14.50;10.93;;;13.70;94.60;;;13.67;61.42;98172.41;4966000;28;124129;-70
2022/09/30 09:10:10;;;;;;;18.93;10.00;;;13.10;94.40;;;13.68;61.35;98171.25;4970852;28;120416;-70
2022/09/30 09:13:09;;;;;;;15.47;9.37;;;13.10;94.30;;;13.76;61.37;98174.25;4978161;28;120337;-70
2022/09/30 09:16:13;;;;;;;12.50;8.70;;;13.30;94.40;;;13.84;61.29;98178.88;4970256;28;124146;-70
2022/09/30 09:19:13;;;;;;;24.63;11.73;;;13.20;94.30;;;13.88;61.01;98165.88;4987047;28;122497;-69
2022/09/30 09:21:53;;;;;;;14.70;11.10;;;13.30;94.20;;;13.90;61.03;98169.13;4977603;28;118346;-69
2022/09/30 09:24:29;;;;;;;14.60;10.30;;;13.30;94.20;;;13.91;60.78;98167.97;4968188;28;119606;-69
2022/09/30 09:26:58;;;;;;;21.00;10.97;;;13.30;94.10;;;13.95;60.83;98170.88;4967222;28;126344;-77
2022/09/30 09:29:42;;;;;;;16.20;10.70;;;13.40;94.10;;;13.99;60.67;98167.00;4963694;28;124020;-75
2022/09/30 09:32:18;;;;;;;19.70;11.50;;;13.40;94.10;;;14.08;60.71;98164.94;4966181;28;119450;-77
2022/09/30 09:34:54;;;;;;;14.80;8.80;;;13.50;94.00;;;14.15;60.36;98167.91;4975429;28;119188;-74
2022/09/30 09:40:56;;;;;;;18.33;11.07;;;13.90;93.90;;;14.24;60.06;98173.34;4974041;28;124813;-70
2022/09/30 09:43:42;;;;;;;14.73;10.50;;;13.60;93.70;;;14.29;59.83;98175.88;4964573;28;118746;-70
2022/09/30 09:46:20;;;;;;;14.60;9.00;;;13.80;93.70;;;14.35;59.86;98170.88;4978157;28;119037;-69
2022/09/30 09:48:46;;;;;;;16.53;9.80;;;13.70;93.60;;;14.40;59.66;98173.41;4964451;28;124298;-70
2022/09/30 09:51:32;;;;;;;10.40;8.10;;;13.80;93.50;;;14.48;59.38;98179.94;4965195;28;123796;-70
2022/09/30 09:54:01;;;;;;;14.70;7.97;;;13.90;93.50;;;14.57;59.23;98175.91;4971959;28;118039;-70
2022/09/30 09:56:32;;;;;;;12.13;7.73;;;14.00;93.50;;;14.70;59.03;98184.19;4969159;28;119054;-70
2022/09/30 09:59:15;;;;;;;12.90;7.83;;;14.10;93.30;;;14.77;58.53;98182.38;4977633;28;124439;-70
2022/09/30 10:01:52;;;;;;;9.60;7.23;;;14.10;93.00;;;14.84;58.29;98175.44;4970909;28;123630;-70
2022/09/30 10:04:29;;;;;;;13.90;8.80;;;14.20;93.00;;;14.92;57.73;98180.00;4974026;28;120198;-70
2022/09/30 10:06:59;;;;;;;9.47;6.50;;;14.30;92.70;;;14.96;57.25;98187.31;4974685;28;121843;-70
2022/09/30 10:09:35;;;;;;;10.10;7.80;;;14.30;92.40;;;15.00;56.45;98185.41;4967549;28;124000;-70
2022/09/30 10:12:05;;;;;;;9.40;7.20;;;14.40;92.10;;;15.05;56.61;98180.75;4969863;28;124876;-70
2022/09/30 10:14:50;;;;;;;12.40;7.20;;;14.40;92.00;;;15.10;56.38;98192.44;4977297;28;119232;-70
2022/09/30 10:17:30;;;;;;;9.13;6.27;;;14.50;91.90;;;15.17;55.75;98183.44;4965228;28;117868;-69
2022/09/30 10:20:05;;;;;;;11.20;5.97;;;14.60;91.60;;;15.25;55.70;98182.47;4984281;28;123388;-70
2022/09/30 10:22:34;;;;;;;11.50;6.03;;;14.80;91.60;;;15.35;55.13;98186.69;4967627;28;123280;-71
2022/09/30 10:25:17;;;;;;;9.67;6.20;;;14.70;91.30;;;15.44;54.82;98181.75;4976893;28;119062;-70
2022/09/30 10:28:00;;;;;;;7.27;5.93;;;14.80;91.00;;;15.54;54.24;98183.19;4965875;28;119013;-70
2022/09/30 10:30:43;;;;;;;10.10;5.80;;;14.90;90.80;;;15.63;53.65;98187.38;4967890;28;124078;-68
2022/09/30 10:33:22;;;;;;;9.03;6.27;;;15.00;90.60;;;15.74;53.64;98192.44;4978952;28;123221;-70
2022/09/30 10:35:56;;;;;;;9.17;6.50;;;15.10;90.50;;;15.82;53.28;98197.78;4969102;28;119790;-70
2022/09/30 10:38:30;;;;;;;8.60;5.60;;;15.20;90.30;;;15.92;53.09;98193.66;4968779;28;120841;-69
2022/09/30 10:40:58;;;;;;;10.50;5.60;;;15.30;90.30;;;16.05;53.09;98191.56;4965749;28;125444;-69